sensor_id;sensor_type;location;lat;lon;timestamp;temperature;humidity
14682;DHT22;7429;52.498;13.480;2023-04-01T00:00:38;9.80;99.90
14682;DHT22;7429;52.498;13.480;2023-04-01T00:03:42;9.80;99.90
14682;DHT22;7429;52.498;13.480;2023-04-01T00:06:45;9.80;99.90
14682;DHT22;7429;52.498;13.480;2023-04-01T00:09:51;9.80;99.90
14682;DHT22;7429;52.498;13.480;2023-04-01T00:12:55;9.80;99.90
14682;DHT22;7429;52.498;13.480;2023-04-01T00:15:59;9.90;99.90
14682;DHT22;7429;52.498;13.480;2023-04-01T00:19:04;9.90;99.90
14682;DHT22;7429;52.498;13.480;2023-04-01T00:22:07;9.90;99.90
14682;DHT22;7429;52.498;13.480;2023-04-01T00:25:17;9.90;99.90
14682;DHT22;7429;52.498;13.480;2023-04-01T00:28:23;9.90;99.90
14682;DHT22;7429;52.498;13.480;2023-04-01T00:31:27;10.00;99.90
14682;DHT22;7429;52.498;13.480;2023-04-01T00:34:30;10.00;99.90
14682;DHT22;7429;52.498;13.480;2023-04-01T00:37:36;10.00;99.90
14682;DHT22;7429;52.498;13.480;2023-04-01T00:40:43;10.00;99.90
14682;DHT22;7429;52.498;13.480;2023-04-01T00:43:50;10.00;99.90
14682;DHT22;7429;52.498;13.480;2023-04-01T00:46:56;10.00;99.90
14682;DHT22;7429;52.498;13.480;2023-04-01T00:49:59;10.00;99.90
14682;DHT22;7429;52.498;13.480;2023-04-01T00:53:05;10.00;99.90
14682;DHT22;7429;52.498;13.480;2023-04-01T00:56:13;10.00;99.90
14682;DHT22;7429;52.498;13.480;2023-04-01T00:59:22;10.00;99.90
14682;DHT22;7429;52.498;13.480;2023-04-01T01:02:26;10.00;99.90
14682;DHT22;7429;52.498;13.480;2023-04-01T01:05:40;10.00;99.90
14682;DHT22;7429;52.498;13.480;2023-04-01T01:09:09;10.00;99.90
14682;DHT22;7429;52.498;13.480;2023-04-01T01:12:18;10.00;99.90
14682;DHT22;7429;52.498;13.480;2023-04-01T01:15:26;10.00;99.90
14682;DHT22;7429;52.498;13.480;2023-04-01T01:18:35;10.00;99.90
14682;DHT22;7429;52.498;13.480;2023-04-01T01:22:17;10.00;99.90
14682;DHT22;7429;52.498;13.480;2023-04-01T01:25:34;10.00;99.90
14682;DHT22;7429;52.498;13.480;2023-04-01T01:28:50;10.00;99.90
14682;DHT22;7429;52.498;13.480;2023-04-01T01:32:04;10.00;99.90
14682;DHT22;7429;52.498;13.480;2023-04-01T01:35:21;10.10;99.90
14682;DHT22;7429;52.498;13.480;2023-04-01T01:38:31;10.10;99.90
14682;DHT22;7429;52.498;13.480;2023-04-01T01:41:39;10.00;99.90
14682;DHT22;7429;52.498;13.480;2023-04-01T01:44:46;10.00;99.90
14682;DHT22;7429;52.498;13.480;2023-04-01T01:47:51;9.90;99.90
14682;DHT22;7429;52.498;13.480;2023-04-01T01:50:56;10.00;99.90
14682;DHT22;7429;52.498;13.480;2023-04-01T01:54:00;10.00;99.90
14682;DHT22;7429;52.498;13.480;2023-04-01T01:57:07;10.00;99.90
14682;DHT22;7429;52.498;13.480;2023-04-01T02:00:17;10.00;99.90
14682;DHT22;7429;52.498;13.480;2023-04-01T02:03:26;10.00;99.90
14682;DHT22;7429;52.498;13.480;2023-04-01T02:06:35;10.00;99.90
14682;DHT22;7429;52.498;13.480;2023-04-01T02:09:43;10.00;99.90
14682;DHT22;7429;52.498;13.480;2023-04-01T02:12:48;10.00;99.90
14682;DHT22;7429;52.498;13.480;2023-04-01T02:15:53;10.00;99.90
14682;DHT22;7429;52.498;13.480;2023-04-01T02:19:05;10.00;99.90
14682;DHT22;7429;52.498;13.480;2023-04-01T02:22:13;10.00;99.90
14682;DHT22;7429;52.498;13.480;2023-04-01T02:25:22;9.90;99.90
14682;DHT22;7429;52.498;13.480;2023-04-01T02:28:27;9.90;99.90
14682;DHT22;7429;52.498;13.480;2023-04-01T02:31:32;9.90;99.90
14682;DHT22;7429;52.498;13.480;2023-04-01T02:34:37;9.90;99.90
14682;DHT22;7429;52.498;13.480;2023-04-01T02:37:42;9.80;99.90
14682;DHT22;7429;52.498;13.480;2023-04-01T02:40:48;9.80;99.90
14682;DHT22;7429;52.498;13.480;2023-04-01T02:43:52;9.90;99.90
14682;DHT22;7429;52.498;13.480;2023-04-01T02:46:56;9.90;99.90
14682;DHT22;7429;52.498;13.480;2023-04-01T02:49:59;9.90;99.90
14682;DHT22;7429;52.498;13.480;2023-04-01T02:53:04;10.00;99.90
14682;DHT22;7429;52.498;13.480;2023-04-01T02:56:08;10.00;99.90
14682;DHT22;7429;52.498;13.480;2023-04-01T02:59:11;10.00;99.90
14682;DHT22;7429;52.498;13.480;2023-04-01T03:02:14;10.00;99.90
14682;DHT22;7429;52.498;13.480;2023-04-01T03:05:17;10.00;99.90
14682;DHT22;7429;52.498;13.480;2023-04-01T03:08:22;10.00;99.90
14682;DHT22;7429;52.498;13.480;2023-04-01T03:11:25;10.00;99.90
14682;DHT22;7429;52.498;13.480;2023-04-01T03:14:29;10.10;99.90
14682;DHT22;7429;52.498;13.480;2023-04-01T03:17:32;10.00;99.90
14682;DHT22;7429;52.498;13.480;2023-04-01T03:20:35;10.10;99.90
14682;DHT22;7429;52.498;13.480;2023-04-01T03:23:42;10.10;99.90
14682;DHT22;7429;52.498;13.480;2023-04-01T03:26:45;10.10;99.90
14682;DHT22;7429;52.498;13.480;2023-04-01T03:29:49;10.00;99.90
14682;DHT22;7429;52.498;13.480;2023-04-01T03:32:52;10.00;99.90
14682;DHT22;7429;52.498;13.480;2023-04-01T03:35:55;10.00;99.90
14682;DHT22;7429;52.498;13.480;2023-04-01T03:39:00;10.10;99.90
14682;DHT22;7429;52.498;13.480;2023-04-01T03:42:13;10.00;99.90
14682;DHT22;7429;52.498;13.480;2023-04-01T03:45:16;10.10;99.90
14682;DHT22;7429;52.498;13.480;2023-04-01T03:48:21;10.00;99.90
14682;DHT22;7429;52.498;13.480;2023-04-01T03:51:24;10.00;99.90
14682;DHT22;7429;52.498;13.480;2023-04-01T03:54:29;10.00;99.90
14682;DHT22;7429;52.498;13.480;2023-04-01T03:57:32;10.00;99.90
14682;DHT22;7429;52.498;13.480;2023-04-01T04:00:45;10.00;99.90
14682;DHT22;7429;52.498;13.480;2023-04-01T04:03:49;10.00;99.90
14682;DHT22;7429;52.498;13.480;2023-04-01T04:06:53;10.00;99.90
14682;DHT22;7429;52.498;13.480;2023-04-01T04:09:58;10.00;99.90
14682;DHT22;7429;52.498;13.480;2023-04-01T04:13:01;10.00;99.90
14682;DHT22;7429;52.498;13.480;2023-04-01T04:16:07;10.00;99.90
14682;DHT22;7429;52.498;13.480;2023-04-01T04:19:15;10.10;99.90
14682;DHT22;7429;52.498;13.480;2023-04-01T04:22:18;10.00;99.90
14682;DHT22;7429;52.498;13.480;2023-04-01T04:25:23;10.00;99.90
14682;DHT22;7429;52.498;13.480;2023-04-01T04:28:27;10.00;99.90
14682;DHT22;7429;52.498;13.480;2023-04-01T04:31:34;10.00;99.90
14682;DHT22;7429;52.498;13.480;2023-04-01T04:34:37;10.00;99.90
14682;DHT22;7429;52.498;13.480;2023-04-01T04:37:42;10.00;99.90
14682;DHT22;7429;52.498;13.480;2023-04-01T04:40:46;10.00;99.90
14682;DHT22;7429;52.498;13.480;2023-04-01T04:43:51;10.10;99.90
14682;DHT22;7429;52.498;13.480;2023-04-01T04:46:56;10.10;99.90
14682;DHT22;7429;52.498;13.480;2023-04-01T04:50:00;10.10;99.90
14682;DHT22;7429;52.498;13.480;2023-04-01T04:53:03;10.00;99.90
14682;DHT22;7429;52.498;13.480;2023-04-01T04:56:09;10.10;99.90
14682;DHT22;7429;52.498;13.480;2023-04-01T04:59:21;10.10;99.90
14682;DHT22;7429;52.498;13.480;2023-04-01T05:02:42;10.10;99.90
14682;DHT22;7429;52.498;13.480;2023-04-01T05:05:51;10.10;99.90
14682;DHT22;7429;52.498;13.480;2023-04-01T05:08:56;10.10;99.90
14682;DHT22;7429;52.498;13.480;2023-04-01T05:12:00;10.10;99.90
14682;DHT22;7429;52.498;13.480;2023-04-01T05:15:17;10.10;99.90
14682;DHT22;7429;52.498;13.480;2023-04-01T05:18:21;10.10;99.90
14682;DHT22;7429;52.498;13.480;2023-04-01T05:21:24;10.10;99.90
14682;DHT22;7429;52.498;13.480;2023-04-01T05:24:28;10.10;99.90
14682;DHT22;7429;52.498;13.480;2023-04-01T05:27:33;10.10;99.90
14682;DHT22;7429;52.498;13.480;2023-04-01T05:30:36;10.10;99.90
14682;DHT22;7429;52.498;13.480;2023-04-01T05:33:55;10.10;99.90
14682;DHT22;7429;52.498;13.480;2023-04-01T05:36:58;10.20;99.90
14682;DHT22;7429;52.498;13.480;2023-04-01T05:40:03;10.20;99.90
14682;DHT22;7429;52.498;13.480;2023-04-01T05:43:26;10.20;99.90
14682;DHT22;7429;52.498;13.480;2023-04-01T05:46:31;10.20;99.90
14682;DHT22;7429;52.498;13.480;2023-04-01T05:50:04;10.20;99.90
14682;DHT22;7429;52.498;13.480;2023-04-01T05:53:07;10.20;99.90
14682;DHT22;7429;52.498;13.480;2023-04-01T05:56:33;10.30;99.90
14682;DHT22;7429;52.498;13.480;2023-04-01T05:59:49;10.30;99.90
14682;DHT22;7429;52.498;13.480;2023-04-01T06:02:55;10.30;99.90
14682;DHT22;7429;52.498;13.480;2023-04-01T06:06:23;10.30;99.90
14682;DHT22;7429;52.498;13.480;2023-04-01T06:09:31;10.40;99.90
14682;DHT22;7429;52.498;13.480;2023-04-01T06:12:45;10.40;99.90
14682;DHT22;7429;52.498;13.480;2023-04-01T06:16:00;10.40;99.90
14682;DHT22;7429;52.498;13.480;2023-04-01T06:19:31;10.40;99.90
14682;DHT22;7429;52.498;13.480;2023-04-01T06:22:55;10.40;99.90
14682;DHT22;7429;52.498;13.480;2023-04-01T06:26:14;10.40;99.90
14682;DHT22;7429;52.498;13.480;2023-04-01T06:29:48;10.40;99.90
14682;DHT22;7429;52.498;13.480;2023-04-01T06:33:14;10.40;99.90
14682;DHT22;7429;52.498;13.480;2023-04-01T06:36:39;10.40;99.90
14682;DHT22;7429;52.498;13.480;2023-04-01T06:40:00;10.30;99.90
14682;DHT22;7429;52.498;13.480;2023-04-01T06:43:18;10.40;99.90
14682;DHT22;7429;52.498;13.480;2023-04-01T06:46:49;10.40;99.90
14682;DHT22;7429;52.498;13.480;2023-04-01T06:50:50;10.40;99.90
14682;DHT22;7429;52.498;13.480;2023-04-01T06:58:34;10.40;99.90
14682;DHT22;7429;52.498;13.480;2023-04-01T07:02:18;10.40;99.90
14682;DHT22;7429;52.498;13.480;2023-04-01T07:05:31;10.50;99.90
14682;DHT22;7429;52.498;13.480;2023-04-01T07:08:38;10.50;99.90
14682;DHT22;7429;52.498;13.480;2023-04-01T07:11:45;10.60;99.90
14682;DHT22;7429;52.498;13.480;2023-04-01T07:15:36;10.60;99.90
14682;DHT22;7429;52.498;13.480;2023-04-01T07:18:44;10.60;99.90
14682;DHT22;7429;52.498;13.480;2023-04-01T07:21:54;10.60;99.90
14682;DHT22;7429;52.498;13.480;2023-04-01T07:25:13;10.60;99.90
14682;DHT22;7429;52.498;13.480;2023-04-01T07:28:22;10.60;99.90
14682;DHT22;7429;52.498;13.480;2023-04-01T07:31:55;10.60;99.90
14682;DHT22;7429;52.498;13.480;2023-04-01T07:35:17;10.60;99.90
14682;DHT22;7429;52.498;13.480;2023-04-01T07:38:33;10.50;99.90
14682;DHT22;7429;52.498;13.480;2023-04-01T07:41:51;10.70;99.90
14682;DHT22;7429;52.498;13.480;2023-04-01T07:45:14;10.70;99.90
14682;DHT22;7429;52.498;13.480;2023-04-01T07:48:25;10.80;99.90
14682;DHT22;7429;52.498;13.480;2023-04-01T07:52:00;10.90;99.90
14682;DHT22;7429;52.498;13.480;2023-04-01T07:55:21;10.90;99.90
14682;DHT22;7429;52.498;13.480;2023-04-01T07:58:34;10.90;99.90
14682;DHT22;7429;52.498;13.480;2023-04-01T08:01:49;10.90;99.90
14682;DHT22;7429;52.498;13.480;2023-04-01T08:05:03;10.90;99.90
14682;DHT22;7429;52.498;13.480;2023-04-01T08:08:17;10.90;99.90
14682;DHT22;7429;52.498;13.480;2023-04-01T08:11:58;10.80;99.90
14682;DHT22;7429;52.498;13.480;2023-04-01T08:15:49;10.80;99.90
14682;DHT22;7429;52.498;13.480;2023-04-01T08:19:23;10.70;99.90
14682;DHT22;7429;52.498;13.480;2023-04-01T08:22:38;10.60;99.90
14682;DHT22;7429;52.498;13.480;2023-04-01T08:25:54;10.50;99.90
14682;DHT22;7429;52.498;13.480;2023-04-01T08:29:10;10.40;99.90
14682;DHT22;7429;52.498;13.480;2023-04-01T08:32:18;10.30;99.90
14682;DHT22;7429;52.498;13.480;2023-04-01T08:35:31;10.10;99.90
14682;DHT22;7429;52.498;13.480;2023-04-01T08:38:43;10.00;99.90
14682;DHT22;7429;52.498;13.480;2023-04-01T08:42:19;9.80;99.90
14682;DHT22;7429;52.498;13.480;2023-04-01T08:45:47;9.80;99.90
14682;DHT22;7429;52.498;13.480;2023-04-01T08:49:12;9.70;99.90
14682;DHT22;7429;52.498;13.480;2023-04-01T08:52:34;9.60;99.90
14682;DHT22;7429;52.498;13.480;2023-04-01T08:55:51;9.70;99.90
14682;DHT22;7429;52.498;13.480;2023-04-01T09:02:56;9.70;99.90
14682;DHT22;7429;52.498;13.480;2023-04-01T09:06:26;9.70;99.90
14682;DHT22;7429;52.498;13.480;2023-04-01T09:09:55;9.80;99.90
14682;DHT22;7429;52.498;13.480;2023-04-01T09:14:38;9.80;99.90
14682;DHT22;7429;52.498;13.480;2023-04-01T09:22:25;9.90;99.90
14682;DHT22;7429;52.498;13.480;2023-04-01T09:26:06;9.90;99.90
14682;DHT22;7429;52.498;13.480;2023-04-01T09:29:30;10.00;99.90
14682;DHT22;7429;52.498;13.480;2023-04-01T09:36:47;9.80;99.90
14682;DHT22;7429;52.498;13.480;2023-04-01T09:40:15;9.80;99.90
14682;DHT22;7429;52.498;13.480;2023-04-01T09:43:27;9.80;99.90
14682;DHT22;7429;52.498;13.480;2023-04-01T09:46:53;9.90;99.90
14682;DHT22;7429;52.498;13.480;2023-04-01T09:50:29;9.80;99.90
14682;DHT22;7429;52.498;13.480;2023-04-01T09:53:48;9.90;99.90
14682;DHT22;7429;52.498;13.480;2023-04-01T09:57:22;9.90;99.90
14682;DHT22;7429;52.498;13.480;2023-04-01T10:01:19;9.90;99.90
14682;DHT22;7429;52.498;13.480;2023-04-01T10:05:22;9.90;99.90
14682;DHT22;7429;52.498;13.480;2023-04-01T10:09:11;9.70;99.90
14682;DHT22;7429;52.498;13.480;2023-04-01T10:12:51;9.70;99.90
14682;DHT22;7429;52.498;13.480;2023-04-01T10:16:28;9.60;99.90
14682;DHT22;7429;52.498;13.480;2023-04-01T10:20:01;9.60;99.90
14682;DHT22;7429;52.498;13.480;2023-04-01T10:23:31;9.50;99.90
14682;DHT22;7429;52.498;13.480;2023-04-01T10:27:01;9.60;99.90
14682;DHT22;7429;52.498;13.480;2023-04-01T10:31:03;9.60;99.90
14682;DHT22;7429;52.498;13.480;2023-04-01T10:34:44;9.60;99.90
14682;DHT22;7429;52.498;13.480;2023-04-01T10:38:35;9.60;99.90
14682;DHT22;7429;52.498;13.480;2023-04-01T10:42:11;9.60;99.90
14682;DHT22;7429;52.498;13.480;2023-04-01T10:50:22;9.70;99.90
14682;DHT22;7429;52.498;13.480;2023-04-01T10:54:01;9.60;99.90
14682;DHT22;7429;52.498;13.480;2023-04-01T10:57:54;9.60;99.90
14682;DHT22;7429;52.498;13.480;2023-04-01T11:02:02;9.60;99.90
14682;DHT22;7429;52.498;13.480;2023-04-01T11:06:27;9.50;99.90
14682;DHT22;7429;52.498;13.480;2023-04-01T11:18:30;9.50;99.90
14682;DHT22;7429;52.498;13.480;2023-04-01T11:22:06;9.50;99.90
14682;DHT22;7429;52.498;13.480;2023-04-01T11:25:49;9.40;99.90
14682;DHT22;7429;52.498;13.480;2023-04-01T11:29:49;9.40;99.90
14682;DHT22;7429;52.498;13.480;2023-04-01T11:33:11;9.40;99.90
14682;DHT22;7429;52.498;13.480;2023-04-01T11:36:32;9.40;99.90
14682;DHT22;7429;52.498;13.480;2023-04-01T11:39:59;9.40;99.90
14682;DHT22;7429;52.498;13.480;2023-04-01T11:43:34;9.30;99.90
14682;DHT22;7429;52.498;13.480;2023-04-01T11:48:17;9.30;99.90
14682;DHT22;7429;52.498;13.480;2023-04-01T11:51:52;9.30;99.90
14682;DHT22;7429;52.498;13.480;2023-04-01T11:55:19;9.20;99.90
14682;DHT22;7429;52.498;13.480;2023-04-01T11:58:52;9.30;99.90
14682;DHT22;7429;52.498;13.480;2023-04-01T12:02:09;9.30;99.90
14682;DHT22;7429;52.498;13.480;2023-04-01T12:05:23;9.30;99.90
14682;DHT22;7429;52.498;13.480;2023-04-01T12:08:42;9.40;99.90
14682;DHT22;7429;52.498;13.480;2023-04-01T12:11:53;9.30;99.90
14682;DHT22;7429;52.498;13.480;2023-04-01T12:15:17;9.30;99.90
14682;DHT22;7429;52.498;13.480;2023-04-01T12:18:27;9.30;99.90
14682;DHT22;7429;52.498;13.480;2023-04-01T12:21:38;9.30;99.90
14682;DHT22;7429;52.498;13.480;2023-04-01T12:24:53;9.20;99.90
14682;DHT22;7429;52.498;13.480;2023-04-01T12:28:10;9.10;99.90
14682;DHT22;7429;52.498;13.480;2023-04-01T12:31:27;9.10;99.90
14682;DHT22;7429;52.498;13.480;2023-04-01T12:35:10;9.20;99.90
14682;DHT22;7429;52.498;13.480;2023-04-01T12:38:29;9.20;99.90
14682;DHT22;7429;52.498;13.480;2023-04-01T12:41:41;9.10;99.90
14682;DHT22;7429;52.498;13.480;2023-04-01T12:45:01;9.10;99.90
14682;DHT22;7429;52.498;13.480;2023-04-01T12:48:34;9.20;99.90
14682;DHT22;7429;52.498;13.480;2023-04-01T12:52:00;9.10;99.90
14682;DHT22;7429;52.498;13.480;2023-04-01T12:55:29;9.00;99.90
14682;DHT22;7429;52.498;13.480;2023-04-01T13:02:27;8.90;99.90
14682;DHT22;7429;52.498;13.480;2023-04-01T13:06:06;9.10;99.90
14682;DHT22;7429;52.498;13.480;2023-04-01T13:09:36;9.20;99.90
14682;DHT22;7429;52.498;13.480;2023-04-01T13:13:10;9.20;99.90
14682;DHT22;7429;52.498;13.480;2023-04-01T13:16:37;9.10;99.90
14682;DHT22;7429;52.498;13.480;2023-04-01T13:19:47;9.00;99.90
14682;DHT22;7429;52.498;13.480;2023-04-01T13:23:18;8.90;99.90
14682;DHT22;7429;52.498;13.480;2023-04-01T13:26:32;8.70;99.90
14682;DHT22;7429;52.498;13.480;2023-04-01T13:29:41;8.70;99.90
14682;DHT22;7429;52.498;13.480;2023-04-01T13:32:50;8.70;99.90
14682;DHT22;7429;52.498;13.480;2023-04-01T13:36:10;8.70;99.90
14682;DHT22;7429;52.498;13.480;2023-04-01T13:39:29;8.70;99.90
14682;DHT22;7429;52.498;13.480;2023-04-01T13:42:47;8.60;99.90
14682;DHT22;7429;52.498;13.480;2023-04-01T13:46:12;8.70;99.90
14682;DHT22;7429;52.498;13.480;2023-04-01T13:56:43;8.60;99.90
14682;DHT22;7429;52.498;13.480;2023-04-01T14:00:17;8.70;99.90
14682;DHT22;7429;52.498;13.480;2023-04-01T14:03:32;8.60;99.90
14682;DHT22;7429;52.498;13.480;2023-04-01T14:06:57;8.50;99.90
14682;DHT22;7429;52.498;13.480;2023-04-01T14:10:18;8.40;99.90
14682;DHT22;7429;52.498;13.480;2023-04-01T14:13:33;8.30;99.90
14682;DHT22;7429;52.498;13.480;2023-04-01T14:17:03;8.30;99.90
14682;DHT22;7429;52.498;13.480;2023-04-01T14:20:26;8.30;99.90
14682;DHT22;7429;52.498;13.480;2023-04-01T14:23:59;8.30;99.90
14682;DHT22;7429;52.498;13.480;2023-04-01T14:27:32;8.40;99.90
14682;DHT22;7429;52.498;13.480;2023-04-01T14:30:59;8.30;99.90
14682;DHT22;7429;52.498;13.480;2023-04-01T14:34:32;8.30;99.90
14682;DHT22;7429;52.498;13.480;2023-04-01T14:37:58;8.30;99.90
14682;DHT22;7429;52.498;13.480;2023-04-01T14:41:19;8.20;99.90
14682;DHT22;7429;52.498;13.480;2023-04-01T14:44:38;8.10;99.90
14682;DHT22;7429;52.498;13.480;2023-04-01T14:48:15;8.20;99.90
14682;DHT22;7429;52.498;13.480;2023-04-01T14:51:29;8.20;99.90
14682;DHT22;7429;52.498;13.480;2023-04-01T14:54:36;8.20;99.90
14682;DHT22;7429;52.498;13.480;2023-04-01T14:57:40;8.30;99.90
14682;DHT22;7429;52.498;13.480;2023-04-01T15:00:48;8.40;99.90
14682;DHT22;7429;52.498;13.480;2023-04-01T15:04:07;8.40;99.90
14682;DHT22;7429;52.498;13.480;2023-04-01T15:07:45;8.20;99.90
14682;DHT22;7429;52.498;13.480;2023-04-01T15:11:10;8.20;99.90
14682;DHT22;7429;52.498;13.480;2023-04-01T15:14:43;8.10;99.90
14682;DHT22;7429;52.498;13.480;2023-04-01T15:18:07;8.00;99.90
14682;DHT22;7429;52.498;13.480;2023-04-01T15:21:19;7.80;99.90
14682;DHT22;7429;52.498;13.480;2023-04-01T15:24:39;7.80;99.90
14682;DHT22;7429;52.498;13.480;2023-04-01T15:27:51;7.80;99.90
14682;DHT22;7429;52.498;13.480;2023-04-01T15:31:01;7.90;99.90
14682;DHT22;7429;52.498;13.480;2023-04-01T15:34:26;7.80;99.90
14682;DHT22;7429;52.498;13.480;2023-04-01T15:37:39;7.80;99.90
14682;DHT22;7429;52.498;13.480;2023-04-01T15:40:54;7.70;99.90
14682;DHT22;7429;52.498;13.480;2023-04-01T15:44:01;7.80;99.90
14682;DHT22;7429;52.498;13.480;2023-04-01T15:47:08;7.70;99.90
14682;DHT22;7429;52.498;13.480;2023-04-01T15:50:59;7.70;99.90
14682;DHT22;7429;52.498;13.480;2023-04-01T15:54:21;7.60;99.90
14682;DHT22;7429;52.498;13.480;2023-04-01T15:57:33;7.60;99.90
14682;DHT22;7429;52.498;13.480;2023-04-01T16:00:46;7.60;99.90
14682;DHT22;7429;52.498;13.480;2023-04-01T16:03:57;7.60;99.90
14682;DHT22;7429;52.498;13.480;2023-04-01T16:07:24;7.50;99.90
14682;DHT22;7429;52.498;13.480;2023-04-01T16:10:48;7.50;99.90
14682;DHT22;7429;52.498;13.480;2023-04-01T16:14:06;7.40;99.90
14682;DHT22;7429;52.498;13.480;2023-04-01T16:17:31;7.60;99.90
14682;DHT22;7429;52.498;13.480;2023-04-01T16:20:49;7.50;99.90
14682;DHT22;7429;52.498;13.480;2023-04-01T16:23:57;7.40;99.90
14682;DHT22;7429;52.498;13.480;2023-04-01T16:27:08;7.30;99.90
14682;DHT22;7429;52.498;13.480;2023-04-01T16:30:35;7.30;99.90
14682;DHT22;7429;52.498;13.480;2023-04-01T16:33:46;7.20;99.90
14682;DHT22;7429;52.498;13.480;2023-04-01T16:36:54;7.10;99.90
14682;DHT22;7429;52.498;13.480;2023-04-01T16:40:11;7.10;99.90
14682;DHT22;7429;52.498;13.480;2023-04-01T16:43:30;7.10;99.90
14682;DHT22;7429;52.498;13.480;2023-04-01T16:46:43;7.00;99.90
14682;DHT22;7429;52.498;13.480;2023-04-01T16:49:51;7.00;99.90
14682;DHT22;7429;52.498;13.480;2023-04-01T16:53:00;6.80;99.90
14682;DHT22;7429;52.498;13.480;2023-04-01T16:56:10;6.90;99.90
14682;DHT22;7429;52.498;13.480;2023-04-01T16:59:21;6.80;99.90
14682;DHT22;7429;52.498;13.480;2023-04-01T17:02:27;6.80;99.90
14682;DHT22;7429;52.498;13.480;2023-04-01T17:05:40;6.70;99.90
14682;DHT22;7429;52.498;13.480;2023-04-01T17:09:01;6.60;99.90
14682;DHT22;7429;52.498;13.480;2023-04-01T17:12:16;6.60;99.90
14682;DHT22;7429;52.498;13.480;2023-04-01T17:15:31;6.50;99.90
14682;DHT22;7429;52.498;13.480;2023-04-01T17:18:45;6.40;99.90
14682;DHT22;7429;52.498;13.480;2023-04-01T17:22:00;6.40;99.90
14682;DHT22;7429;52.498;13.480;2023-04-01T17:25:24;6.40;99.90
14682;DHT22;7429;52.498;13.480;2023-04-01T17:28:42;6.30;99.90
14682;DHT22;7429;52.498;13.480;2023-04-01T17:32:06;6.30;99.90
14682;DHT22;7429;52.498;13.480;2023-04-01T17:35:19;6.30;99.90
14682;DHT22;7429;52.498;13.480;2023-04-01T17:39:00;6.30;99.90
14682;DHT22;7429;52.498;13.480;2023-04-01T17:42:12;6.20;99.90
14682;DHT22;7429;52.498;13.480;2023-04-01T17:45:26;6.30;99.90
14682;DHT22;7429;52.498;13.480;2023-04-01T17:48:47;6.30;99.90
14682;DHT22;7429;52.498;13.480;2023-04-01T17:51:58;6.20;99.90
14682;DHT22;7429;52.498;13.480;2023-04-01T17:55:26;6.10;99.90
14682;DHT22;7429;52.498;13.480;2023-04-01T17:58:44;6.10;99.90
14682;DHT22;7429;52.498;13.480;2023-04-01T18:01:56;6.10;99.90
14682;DHT22;7429;52.498;13.480;2023-04-01T18:05:34;5.90;99.90
14682;DHT22;7429;52.498;13.480;2023-04-01T18:08:54;5.90;99.90
14682;DHT22;7429;52.498;13.480;2023-04-01T18:12:07;5.80;99.90
14682;DHT22;7429;52.498;13.480;2023-04-01T18:15:24;5.80;99.90
14682;DHT22;7429;52.498;13.480;2023-04-01T18:18:40;5.80;99.90
14682;DHT22;7429;52.498;13.480;2023-04-01T18:21:53;5.80;99.90
14682;DHT22;7429;52.498;13.480;2023-04-01T18:25:01;5.80;99.90
14682;DHT22;7429;52.498;13.480;2023-04-01T18:28:21;5.80;99.90
14682;DHT22;7429;52.498;13.480;2023-04-01T18:31:33;5.70;99.90
14682;DHT22;7429;52.498;13.480;2023-04-01T18:34:48;5.80;99.90
14682;DHT22;7429;52.498;13.480;2023-04-01T18:38:00;5.70;99.90
14682;DHT22;7429;52.498;13.480;2023-04-01T18:41:13;5.70;99.90
14682;DHT22;7429;52.498;13.480;2023-04-01T18:44:27;5.60;99.90
14682;DHT22;7429;52.498;13.480;2023-04-01T18:47:41;5.70;99.90
14682;DHT22;7429;52.498;13.480;2023-04-01T18:50:51;5.70;99.90
14682;DHT22;7429;52.498;13.480;2023-04-01T18:54:01;5.70;99.90
14682;DHT22;7429;52.498;13.480;2023-04-01T18:57:12;5.70;99.90
14682;DHT22;7429;52.498;13.480;2023-04-01T19:00:20;5.70;99.90
14682;DHT22;7429;52.498;13.480;2023-04-01T19:03:32;5.60;99.90
14682;DHT22;7429;52.498;13.480;2023-04-01T19:06:44;5.60;99.90
14682;DHT22;7429;52.498;13.480;2023-04-01T19:10:21;5.60;99.90
14682;DHT22;7429;52.498;13.480;2023-04-01T19:13:49;5.50;99.90
14682;DHT22;7429;52.498;13.480;2023-04-01T19:17:08;5.50;99.90
14682;DHT22;7429;52.498;13.480;2023-04-01T19:20:38;5.50;99.90
14682;DHT22;7429;52.498;13.480;2023-04-01T19:27:34;5.40;99.90
14682;DHT22;7429;52.498;13.480;2023-04-01T19:30:48;5.40;99.90
14682;DHT22;7429;52.498;13.480;2023-04-01T19:34:07;5.40;99.90
14682;DHT22;7429;52.498;13.480;2023-04-01T19:37:26;5.30;99.90
14682;DHT22;7429;52.498;13.480;2023-04-01T19:41:04;5.20;99.90
14682;DHT22;7429;52.498;13.480;2023-04-01T19:44:35;5.20;99.90
14682;DHT22;7429;52.498;13.480;2023-04-01T19:47:57;5.20;99.90
14682;DHT22;7429;52.498;13.480;2023-04-01T19:51:17;5.10;99.90
14682;DHT22;7429;52.498;13.480;2023-04-01T19:54:35;5.10;99.90
14682;DHT22;7429;52.498;13.480;2023-04-01T19:57:50;5.00;99.90
14682;DHT22;7429;52.498;13.480;2023-04-01T20:01:04;5.00;99.90
14682;DHT22;7429;52.498;13.480;2023-04-01T20:04:13;5.00;99.90
14682;DHT22;7429;52.498;13.480;2023-04-01T20:07:23;5.10;99.90
14682;DHT22;7429;52.498;13.480;2023-04-01T20:10:32;5.00;99.90
14682;DHT22;7429;52.498;13.480;2023-04-01T20:13:47;5.00;99.90
14682;DHT22;7429;52.498;13.480;2023-04-01T20:17:02;5.00;99.90
14682;DHT22;7429;52.498;13.480;2023-04-01T20:20:18;5.00;99.90
14682;DHT22;7429;52.498;13.480;2023-04-01T20:23:34;5.00;99.90
14682;DHT22;7429;52.498;13.480;2023-04-01T20:26:45;5.00;99.90
14682;DHT22;7429;52.498;13.480;2023-04-01T20:30:04;5.00;99.90
14682;DHT22;7429;52.498;13.480;2023-04-01T20:33:42;5.00;99.90
14682;DHT22;7429;52.498;13.480;2023-04-01T20:37:02;4.90;99.90
14682;DHT22;7429;52.498;13.480;2023-04-01T20:40:32;4.90;99.90
14682;DHT22;7429;52.498;13.480;2023-04-01T20:44:07;4.80;99.90
14682;DHT22;7429;52.498;13.480;2023-04-01T20:47:18;4.70;99.90
14682;DHT22;7429;52.498;13.480;2023-04-01T20:50:35;4.60;99.90
14682;DHT22;7429;52.498;13.480;2023-04-01T20:53:50;4.60;99.90
14682;DHT22;7429;52.498;13.480;2023-04-01T20:57:00;4.60;99.90
14682;DHT22;7429;52.498;13.480;2023-04-01T21:00:19;4.50;99.90
14682;DHT22;7429;52.498;13.480;2023-04-01T21:03:38;4.60;99.90
14682;DHT22;7429;52.498;13.480;2023-04-01T21:06:58;4.50;99.90
14682;DHT22;7429;52.498;13.480;2023-04-01T21:10:24;4.40;99.90
14682;DHT22;7429;52.498;13.480;2023-04-01T21:13:55;4.40;99.90
14682;DHT22;7429;52.498;13.480;2023-04-01T21:17:10;4.40;99.90
14682;DHT22;7429;52.498;13.480;2023-04-01T21:20:38;4.30;99.90
14682;DHT22;7429;52.498;13.480;2023-04-01T21:24:03;4.20;99.90
14682;DHT22;7429;52.498;13.480;2023-04-01T21:27:37;4.20;99.90
14682;DHT22;7429;52.498;13.480;2023-04-01T21:31:02;4.20;99.90
14682;DHT22;7429;52.498;13.480;2023-04-01T21:34:42;4.20;99.90
14682;DHT22;7429;52.498;13.480;2023-04-01T21:38:00;4.20;99.90
14682;DHT22;7429;52.498;13.480;2023-04-01T21:41:29;4.20;99.90
14682;DHT22;7429;52.498;13.480;2023-04-01T21:44:57;4.20;99.90
14682;DHT22;7429;52.498;13.480;2023-04-01T21:48:34;4.20;99.90